sensor_id;sensor_type;location;lat;lon;timestamp;temperature;humidity
31799;DHT22;18374;51.136;3.502;2023-11-22T01:32:51;4.10;99.90
31799;DHT22;18374;51.136;3.502;2023-11-22T01:35:19;4.20;99.90
31799;DHT22;18374;51.136;3.502;2023-11-22T01:37:47;4.20;99.90
31799;DHT22;18374;51.136;3.502;2023-11-22T01:40:17;4.20;99.90
31799;DHT22;18374;51.136;3.502;2023-11-22T01:42:46;4.30;99.90
31799;DHT22;18374;51.136;3.502;2023-11-22T01:45:14;4.40;99.90
31799;DHT22;18374;51.136;3.502;2023-11-22T01:47:42;4.40;99.90
31799;DHT22;18374;51.136;3.502;2023-11-22T01:50:11;4.40;99.90
31799;DHT22;18374;51.136;3.502;2023-11-22T01:52:39;4.30;99.90
31799;DHT22;18374;51.136;3.502;2023-11-22T01:55:07;4.10;99.90
31799;DHT22;18374;51.136;3.502;2023-11-22T01:57:36;4.10;99.90
31799;DHT22;18374;51.136;3.502;2023-11-22T02:00:05;4.20;99.90
31799;DHT22;18374;51.136;3.502;2023-11-22T02:02:42;4.20;99.90
31799;DHT22;18374;51.136;3.502;2023-11-22T02:05:10;4.10;99.90
31799;DHT22;18374;51.136;3.502;2023-11-22T02:07:39;4.20;99.90
31799;DHT22;18374;51.136;3.502;2023-11-22T02:10:10;4.20;99.90
31799;DHT22;18374;51.136;3.502;2023-11-22T02:12:38;4.20;99.90
31799;DHT22;18374;51.136;3.502;2023-11-22T02:15:06;4.20;99.90
31799;DHT22;18374;51.136;3.502;2023-11-22T02:17:34;4.10;99.90
31799;DHT22;18374;51.136;3.502;2023-11-22T02:20:04;4.20;99.90
31799;DHT22;18374;51.136;3.502;2023-11-22T02:22:47;4.20;99.90
31799;DHT22;18374;51.136;3.502;2023-11-22T02:25:15;4.10;99.90
31799;DHT22;18374;51.136;3.502;2023-11-22T02:27:42;4.10;99.90
31799;DHT22;18374;51.136;3.502;2023-11-22T02:30:11;4.20;99.90
31799;DHT22;18374;51.136;3.502;2023-11-22T02:32:39;4.20;99.90
31799;DHT22;18374;51.136;3.502;2023-11-22T02:35:07;4.20;99.90
31799;DHT22;18374;51.136;3.502;2023-11-22T02:37:35;4.20;99.90
31799;DHT22;18374;51.136;3.502;2023-11-22T02:40:09;4.10;99.90
31799;DHT22;18374;51.136;3.502;2023-11-22T02:42:43;4.10;99.90
31799;DHT22;18374;51.136;3.502;2023-11-22T02:45:11;4.10;99.90
31799;DHT22;18374;51.136;3.502;2023-11-22T02:47:40;4.20;99.90
31799;DHT22;18374;51.136;3.502;2023-11-22T02:50:08;4.20;99.90
31799;DHT22;18374;51.136;3.502;2023-11-22T02:52:36;4.20;99.90
31799;DHT22;18374;51.136;3.502;2023-11-22T02:55:05;4.10;99.90
31799;DHT22;18374;51.136;3.502;2023-11-22T02:57:33;4.00;99.90
31799;DHT22;18374;51.136;3.502;2023-11-22T03:00:01;4.10;99.90
31799;DHT22;18374;51.136;3.502;2023-11-22T03:02:32;4.00;99.90
31799;DHT22;18374;51.136;3.502;2023-11-22T03:05:01;4.00;99.90
31799;DHT22;18374;51.136;3.502;2023-11-22T03:07:29;4.00;99.90
31799;DHT22;18374;51.136;3.502;2023-11-22T03:09:57;4.10;99.90
31799;DHT22;18374;51.136;3.502;2023-11-22T03:12:27;4.00;99.90
31799;DHT22;18374;51.136;3.502;2023-11-22T03:14:55;4.00;99.90
31799;DHT22;18374;51.136;3.502;2023-11-22T03:17:31;4.00;99.90
31799;DHT22;18374;51.136;3.502;2023-11-22T03:20:00;4.00;99.90
31799;DHT22;18374;51.136;3.502;2023-11-22T03:22:28;4.00;99.90
31799;DHT22;18374;51.136;3.502;2023-11-22T03:25:04;4.00;99.90
31799;DHT22;18374;51.136;3.502;2023-11-22T03:27:32;4.00;99.90
31799;DHT22;18374;51.136;3.502;2023-11-22T03:30:00;4.00;99.90
31799;DHT22;18374;51.136;3.502;2023-11-22T03:32:27;3.90;99.90
31799;DHT22;18374;51.136;3.502;2023-11-22T03:34:56;3.90;99.90
31799;DHT22;18374;51.136;3.502;2023-11-22T03:37:27;3.80;99.90
31799;DHT22;18374;51.136;3.502;2023-11-22T03:39:55;3.90;99.90
31799;DHT22;18374;51.136;3.502;2023-11-22T03:42:22;4.00;99.90
31799;DHT22;18374;51.136;3.502;2023-11-22T03:44:50;4.00;99.90
31799;DHT22;18374;51.136;3.502;2023-11-22T03:47:18;4.00;99.90
31799;DHT22;18374;51.136;3.502;2023-11-22T03:49:46;3.80;99.90
31799;DHT22;18374;51.136;3.502;2023-11-22T03:52:14;3.90;99.90
31799;DHT22;18374;51.136;3.502;2023-11-22T04:29:34;4.40;99.90
31799;DHT22;18374;51.136;3.502;2023-11-22T04:32:02;4.50;99.90
31799;DHT22;18374;51.136;3.502;2023-11-22T04:34:30;4.50;99.90
31799;DHT22;18374;51.136;3.502;2023-11-22T04:36:58;4.50;99.90
31799;DHT22;18374;51.136;3.502;2023-11-22T04:39:26;4.50;99.90
31799;DHT22;18374;51.136;3.502;2023-11-22T04:41:53;4.50;99.90
31799;DHT22;18374;51.136;3.502;2023-11-22T04:44:21;4.50;99.90
31799;DHT22;18374;51.136;3.502;2023-11-22T04:46:49;4.50;99.90
31799;DHT22;18374;51.136;3.502;2023-11-22T04:49:17;4.50;99.90
31799;DHT22;18374;51.136;3.502;2023-11-22T04:51:44;4.60;99.90
31799;DHT22;18374;51.136;3.502;2023-11-22T04:54:13;4.50;99.90
31799;DHT22;18374;51.136;3.502;2023-11-22T04:56:40;4.50;99.90
31799;DHT22;18374;51.136;3.502;2023-11-22T04:59:08;4.50;99.90
31799;DHT22;18374;51.136;3.502;2023-11-22T05:01:36;4.50;99.90
31799;DHT22;18374;51.136;3.502;2023-11-22T05:04:04;4.40;99.90
31799;DHT22;18374;51.136;3.502;2023-11-22T05:06:32;4.40;99.90
31799;DHT22;18374;51.136;3.502;2023-11-22T05:09:00;4.40;99.90
31799;DHT22;18374;51.136;3.502;2023-11-22T05:36:19;4.10;99.90
31799;DHT22;18374;51.136;3.502;2023-11-22T05:58:45;3.90;99.90
31799;DHT22;18374;51.136;3.502;2023-11-22T06:03:42;3.80;99.90
31799;DHT22;18374;51.136;3.502;2023-11-22T06:16:06;3.70;99.90
31799;DHT22;18374;51.136;3.502;2023-11-22T06:45:55;3.80;99.90
31799;DHT22;18374;51.136;3.502;2023-11-22T06:50:52;3.80;99.90
31799;DHT22;18374;51.136;3.502;2023-11-22T07:13:15;3.90;99.90
31799;DHT22;18374;51.136;3.502;2023-11-22T13:16:03;9.40;99.90
31799;DHT22;18374;51.136;3.502;2023-11-22T13:18:32;9.30;99.90
31799;DHT22;18374;51.136;3.502;2023-11-22T13:21:00;9.30;99.90
31799;DHT22;18374;51.136;3.502;2023-11-22T13:23:28;9.20;99.90
31799;DHT22;18374;51.136;3.502;2023-11-22T13:25:56;9.20;99.90
31799;DHT22;18374;51.136;3.502;2023-11-22T13:28:24;9.00;99.90
31799;DHT22;18374;51.136;3.502;2023-11-22T13:30:52;8.90;99.90
31799;DHT22;18374;51.136;3.502;2023-11-22T13:33:21;8.90;99.90
31799;DHT22;18374;51.136;3.502;2023-11-22T13:35:49;8.80;99.90
31799;DHT22;18374;51.136;3.502;2023-11-22T13:38:16;8.80;99.90
31799;DHT22;18374;51.136;3.502;2023-11-22T13:40:44;8.80;99.90
31799;DHT22;18374;51.136;3.502;2023-11-22T13:43:13;8.80;99.90
31799;DHT22;18374;51.136;3.502;2023-11-22T13:45:41;8.90;99.90
31799;DHT22;18374;51.136;3.502;2023-11-22T13:48:09;8.90;99.90
31799;DHT22;18374;51.136;3.502;2023-11-22T13:50:39;9.00;99.90
31799;DHT22;18374;51.136;3.502;2023-11-22T13:53:07;9.10;99.90
31799;DHT22;18374;51.136;3.502;2023-11-22T15:20:31;8.30;99.90
31799;DHT22;18374;51.136;3.502;2023-11-22T15:25:31;8.30;99.90
31799;DHT22;18374;51.136;3.502;2023-11-22T15:27:58;8.30;99.90
31799;DHT22;18374;51.136;3.502;2023-11-22T15:30:27;8.30;99.90
31799;DHT22;18374;51.136;3.502;2023-11-22T15:32:54;8.30;99.90
31799;DHT22;18374;51.136;3.502;2023-11-22T15:35:22;8.30;99.90
31799;DHT22;18374;51.136;3.502;2023-11-22T15:37:50;8.20;99.90
31799;DHT22;18374;51.136;3.502;2023-11-22T15:40:18;8.20;99.90
31799;DHT22;18374;51.136;3.502;2023-11-22T15:42:45;8.20;99.90
31799;DHT22;18374;51.136;3.502;2023-11-22T15:45:13;8.20;99.90
31799;DHT22;18374;51.136;3.502;2023-11-22T15:47:41;8.20;99.90
31799;DHT22;18374;51.136;3.502;2023-11-22T15:50:09;8.20;99.90
31799;DHT22;18374;51.136;3.502;2023-11-22T15:52:38;8.20;99.90
31799;DHT22;18374;51.136;3.502;2023-11-22T15:55:06;8.10;99.90
31799;DHT22;18374;51.136;3.502;2023-11-22T15:57:34;8.10;99.90
31799;DHT22;18374;51.136;3.502;2023-11-22T16:00:02;8.10;99.90
31799;DHT22;18374;51.136;3.502;2023-11-22T16:17:39;8.10;99.90
31799;DHT22;18374;51.136;3.502;2023-11-22T16:20:09;8.10;99.90
31799;DHT22;18374;51.136;3.502;2023-11-22T16:22:41;8.10;99.90
31799;DHT22;18374;51.136;3.502;2023-11-22T16:25:13;8.00;99.90
31799;DHT22;18374;51.136;3.502;2023-11-22T16:27:42;8.10;99.90
31799;DHT22;18374;51.136;3.502;2023-11-22T16:30:10;8.00;99.90
31799;DHT22;18374;51.136;3.502;2023-11-22T16:32:37;8.00;99.90
31799;DHT22;18374;51.136;3.502;2023-11-22T16:35:07;8.00;99.90
31799;DHT22;18374;51.136;3.502;2023-11-22T16:37:39;8.00;99.90
31799;DHT22;18374;51.136;3.502;2023-11-22T16:40:08;8.00;99.90
31799;DHT22;18374;51.136;3.502;2023-11-22T16:42:36;8.00;99.90
31799;DHT22;18374;51.136;3.502;2023-11-22T16:45:05;8.00;99.90
31799;DHT22;18374;51.136;3.502;2023-11-22T16:47:34;8.00;99.90
31799;DHT22;18374;51.136;3.502;2023-11-22T16:50:03;7.90;99.90
31799;DHT22;18374;51.136;3.502;2023-11-22T16:52:33;7.90;99.90
31799;DHT22;18374;51.136;3.502;2023-11-22T16:55:01;7.90;99.90
31799;DHT22;18374;51.136;3.502;2023-11-22T16:57:31;7.90;99.90
31799;DHT22;18374;51.136;3.502;2023-11-22T16:59:59;7.90;99.90
31799;DHT22;18374;51.136;3.502;2023-11-22T17:02:27;7.90;99.90
31799;DHT22;18374;51.136;3.502;2023-11-22T17:04:55;7.90;99.90
31799;DHT22;18374;51.136;3.502;2023-11-22T17:07:24;7.90;99.90
31799;DHT22;18374;51.136;3.502;2023-11-22T17:09:52;7.80;99.90
31799;DHT22;18374;51.136;3.502;2023-11-22T17:12:20;7.80;99.90
31799;DHT22;18374;51.136;3.502;2023-11-22T17:14:47;7.70;99.90
31799;DHT22;18374;51.136;3.502;2023-11-22T17:17:16;7.60;99.90
31799;DHT22;18374;51.136;3.502;2023-11-22T17:19:44;7.60;99.90
31799;DHT22;18374;51.136;3.502;2023-11-22T17:22:14;7.60;99.90
31799;DHT22;18374;51.136;3.502;2023-11-22T17:24:41;7.50;99.90
31799;DHT22;18374;51.136;3.502;2023-11-22T17:27:09;7.50;99.90
31799;DHT22;18374;51.136;3.502;2023-11-22T17:29:37;7.50;99.90
31799;DHT22;18374;51.136;3.502;2023-11-22T17:32:05;7.50;99.90
31799;DHT22;18374;51.136;3.502;2023-11-22T17:34:34;7.40;99.90
31799;DHT22;18374;51.136;3.502;2023-11-22T17:37:03;7.40;99.90
31799;DHT22;18374;51.136;3.502;2023-11-22T17:39:30;7.40;99.90
31799;DHT22;18374;51.136;3.502;2023-11-22T17:41:58;7.40;99.90
31799;DHT22;18374;51.136;3.502;2023-11-22T17:44:26;7.30;99.90
31799;DHT22;18374;51.136;3.502;2023-11-22T17:46:54;7.30;99.90
31799;DHT22;18374;51.136;3.502;2023-11-22T17:49:21;7.30;99.90
31799;DHT22;18374;51.136;3.502;2023-11-22T17:51:49;7.30;99.90
31799;DHT22;18374;51.136;3.502;2023-11-22T17:54:21;7.30;99.90
31799;DHT22;18374;51.136;3.502;2023-11-22T17:56:49;7.20;99.90
31799;DHT22;18374;51.136;3.502;2023-11-22T17:59:17;7.20;99.90
31799;DHT22;18374;51.136;3.502;2023-11-22T18:01:45;7.20;99.90
31799;DHT22;18374;51.136;3.502;2023-11-22T18:04:13;7.20;99.90
31799;DHT22;18374;51.136;3.502;2023-11-22T18:06:41;7.20;99.90
31799;DHT22;18374;51.136;3.502;2023-11-22T18:09:10;7.10;99.90
31799;DHT22;18374;51.136;3.502;2023-11-22T18:11:38;7.10;99.90
31799;DHT22;18374;51.136;3.502;2023-11-22T18:14:06;7.10;99.90
31799;DHT22;18374;51.136;3.502;2023-11-22T18:16:34;7.10;99.90
31799;DHT22;18374;51.136;3.502;2023-11-22T18:19:02;7.10;99.90
31799;DHT22;18374;51.136;3.502;2023-11-22T18:21:30;7.10;99.90
31799;DHT22;18374;51.136;3.502;2023-11-22T18:23:58;7.10;99.90
31799;DHT22;18374;51.136;3.502;2023-11-22T18:26:26;7.10;99.90
31799;DHT22;18374;51.136;3.502;2023-11-22T18:28:53;7.10;99.90
31799;DHT22;18374;51.136;3.502;2023-11-22T18:31:21;7.10;99.90
31799;DHT22;18374;51.136;3.502;2023-11-22T18:33:50;7.10;99.90
31799;DHT22;18374;51.136;3.502;2023-11-22T18:36:18;7.10;99.90
31799;DHT22;18374;51.136;3.502;2023-11-22T18:38:47;7.20;99.90
31799;DHT22;18374;51.136;3.502;2023-11-22T18:41:15;7.20;99.90
31799;DHT22;18374;51.136;3.502;2023-11-22T18:43:43;7.20;99.90
31799;DHT22;18374;51.136;3.502;2023-11-22T18:46:11;7.20;99.90
31799;DHT22;18374;51.136;3.502;2023-11-22T18:48:38;7.30;99.90
31799;DHT22;18374;51.136;3.502;2023-11-22T18:51:06;7.30;99.90
31799;DHT22;18374;51.136;3.502;2023-11-22T18:53:34;7.20;99.90
31799;DHT22;18374;51.136;3.502;2023-11-22T18:56:02;7.20;99.90
31799;DHT22;18374;51.136;3.502;2023-11-22T18:58:29;7.20;99.90
31799;DHT22;18374;51.136;3.502;2023-11-22T19:00:57;7.10;99.90
31799;DHT22;18374;51.136;3.502;2023-11-22T19:03:25;7.10;99.90
31799;DHT22;18374;51.136;3.502;2023-11-22T19:05:54;7.00;99.90
31799;DHT22;18374;51.136;3.502;2023-11-22T19:08:22;7.00;99.90
31799;DHT22;18374;51.136;3.502;2023-11-22T19:10:50;7.00;99.90
31799;DHT22;18374;51.136;3.502;2023-11-22T19:13:18;7.00;99.90
31799;DHT22;18374;51.136;3.502;2023-11-22T19:15:48;7.00;99.90
31799;DHT22;18374;51.136;3.502;2023-11-22T19:18:17;7.00;99.90
31799;DHT22;18374;51.136;3.502;2023-11-22T19:20:45;7.00;99.90
31799;DHT22;18374;51.136;3.502;2023-11-22T19:23:12;7.00;99.90
31799;DHT22;18374;51.136;3.502;2023-11-22T19:25:40;7.00;99.90
31799;DHT22;18374;51.136;3.502;2023-11-22T19:28:08;7.00;99.90
31799;DHT22;18374;51.136;3.502;2023-11-22T19:30:35;6.90;99.90
31799;DHT22;18374;51.136;3.502;2023-11-22T19:33:03;6.90;99.90
31799;DHT22;18374;51.136;3.502;2023-11-22T19:35:31;6.90;99.90
31799;DHT22;18374;51.136;3.502;2023-11-22T19:37:59;6.90;99.90
31799;DHT22;18374;51.136;3.502;2023-11-22T19:40:27;6.90;99.90
31799;DHT22;18374;51.136;3.502;2023-11-22T19:42:57;6.90;99.90
31799;DHT22;18374;51.136;3.502;2023-11-22T19:45:24;6.90;99.90
31799;DHT22;18374;51.136;3.502;2023-11-22T19:47:52;6.80;99.90
31799;DHT22;18374;51.136;3.502;2023-11-22T19:50:20;6.90;99.90
31799;DHT22;18374;51.136;3.502;2023-11-22T19:52:50;6.90;99.90
31799;DHT22;18374;51.136;3.502;2023-11-22T19:55:17;6.90;99.90
31799;DHT22;18374;51.136;3.502;2023-11-22T19:57:46;6.90;99.90
31799;DHT22;18374;51.136;3.502;2023-11-22T20:00:14;7.00;99.90
31799;DHT22;18374;51.136;3.502;2023-11-22T20:02:42;7.10;99.90
31799;DHT22;18374;51.136;3.502;2023-11-22T20:05:11;7.10;99.90
31799;DHT22;18374;51.136;3.502;2023-11-22T20:07:39;7.20;99.90
31799;DHT22;18374;51.136;3.502;2023-11-22T20:10:08;7.20;99.90
31799;DHT22;18374;51.136;3.502;2023-11-22T20:12:36;7.20;99.90
31799;DHT22;18374;51.136;3.502;2023-11-22T20:15:05;7.20;99.90
31799;DHT22;18374;51.136;3.502;2023-11-22T20:17:33;7.30;99.90
31799;DHT22;18374;51.136;3.502;2023-11-22T20:20:02;7.30;99.90
31799;DHT22;18374;51.136;3.502;2023-11-22T20:22:31;7.30;99.90
31799;DHT22;18374;51.136;3.502;2023-11-22T20:24:59;7.40;99.90
31799;DHT22;18374;51.136;3.502;2023-11-22T20:27:27;7.40;99.90
31799;DHT22;18374;51.136;3.502;2023-11-22T20:29:56;7.50;99.90
31799;DHT22;18374;51.136;3.502;2023-11-22T20:32:24;7.40;99.90
31799;DHT22;18374;51.136;3.502;2023-11-22T20:34:52;7.50;99.90
31799;DHT22;18374;51.136;3.502;2023-11-22T20:37:20;7.50;99.90
31799;DHT22;18374;51.136;3.502;2023-11-22T20:39:49;7.50;99.90
31799;DHT22;18374;51.136;3.502;2023-11-22T20:42:17;7.60;99.90
31799;DHT22;18374;51.136;3.502;2023-11-22T20:44:46;7.50;99.90
31799;DHT22;18374;51.136;3.502;2023-11-22T20:47:15;7.50;99.90
31799;DHT22;18374;51.136;3.502;2023-11-22T20:49:42;7.60;99.90
31799;DHT22;18374;51.136;3.502;2023-11-22T20:52:10;7.60;99.90
31799;DHT22;18374;51.136;3.502;2023-11-22T20:54:38;7.60;99.90
31799;DHT22;18374;51.136;3.502;2023-11-22T20:57:06;7.60;99.90
31799;DHT22;18374;51.136;3.502;2023-11-22T20:59:34;7.60;99.90
31799;DHT22;18374;51.136;3.502;2023-11-22T21:02:01;7.60;99.90
31799;DHT22;18374;51.136;3.502;2023-11-22T21:04:30;7.60;99.90
31799;DHT22;18374;51.136;3.502;2023-11-22T21:06:58;7.60;99.90
31799;DHT22;18374;51.136;3.502;2023-11-22T21:09:25;7.60;99.90
31799;DHT22;18374;51.136;3.502;2023-11-22T21:11:53;7.60;99.90
31799;DHT22;18374;51.136;3.502;2023-11-22T21:14:21;7.60;99.90
31799;DHT22;18374;51.136;3.502;2023-11-22T21:16:48;7.60;99.90
31799;DHT22;18374;51.136;3.502;2023-11-22T21:19:16;7.60;99.90
31799;DHT22;18374;51.136;3.502;2023-11-22T21:21:45;7.60;99.90
31799;DHT22;18374;51.136;3.502;2023-11-22T21:24:15;7.70;99.90
31799;DHT22;18374;51.136;3.502;2023-11-22T21:26:43;7.60;99.90
31799;DHT22;18374;51.136;3.502;2023-11-22T21:29:11;7.60;99.90
31799;DHT22;18374;51.136;3.502;2023-11-22T21:31:38;7.70;99.90
31799;DHT22;18374;51.136;3.502;2023-11-22T21:34:07;7.80;99.90
31799;DHT22;18374;51.136;3.502;2023-11-22T21:36:35;7.80;99.90
31799;DHT22;18374;51.136;3.502;2023-11-22T21:39:06;7.90;99.90
31799;DHT22;18374;51.136;3.502;2023-11-22T21:41:44;7.90;99.90
31799;DHT22;18374;51.136;3.502;2023-11-22T21:44:12;7.90;99.90
31799;DHT22;18374;51.136;3.502;2023-11-22T21:46:40;7.90;99.90
31799;DHT22;18374;51.136;3.502;2023-11-22T21:49:08;7.90;99.90
31799;DHT22;18374;51.136;3.502;2023-11-22T21:51:36;7.90;99.90
31799;DHT22;18374;51.136;3.502;2023-11-22T21:54:05;8.00;99.90
31799;DHT22;18374;51.136;3.502;2023-11-22T21:56:32;8.00;99.90
31799;DHT22;18374;51.136;3.502;2023-11-22T21:59:01;8.00;99.90
31799;DHT22;18374;51.136;3.502;2023-11-22T22:01:29;8.00;99.90
31799;DHT22;18374;51.136;3.502;2023-11-22T22:03:57;8.00;99.90
31799;DHT22;18374;51.136;3.502;2023-11-22T22:06:25;8.10;99.90
31799;DHT22;18374;51.136;3.502;2023-11-22T22:08:53;8.10;99.90
31799;DHT22;18374;51.136;3.502;2023-11-22T22:11:21;8.10;99.90
31799;DHT22;18374;51.136;3.502;2023-11-22T22:13:49;8.10;99.90
31799;DHT22;18374;51.136;3.502;2023-11-22T22:16:17;8.10;99.90
31799;DHT22;18374;51.136;3.502;2023-11-22T22:18:44;8.20;99.90
31799;DHT22;18374;51.136;3.502;2023-11-22T22:21:12;8.20;99.90
31799;DHT22;18374;51.136;3.502;2023-11-22T22:23:40;8.20;99.90
31799;DHT22;18374;51.136;3.502;2023-11-22T22:26:08;8.20;99.90
31799;DHT22;18374;51.136;3.502;2023-11-22T22:28:35;8.30;99.90
31799;DHT22;18374;51.136;3.502;2023-11-22T22:31:05;8.30;99.90
31799;DHT22;18374;51.136;3.502;2023-11-22T22:33:33;8.30;99.90
31799;DHT22;18374;51.136;3.502;2023-11-22T22:36:02;8.30;99.90
31799;DHT22;18374;51.136;3.502;2023-11-22T22:38:30;8.30;99.90
31799;DHT22;18374;51.136;3.502;2023-11-22T22:40:58;8.30;99.90
31799;DHT22;18374;51.136;3.502;2023-11-22T22:43:26;8.30;99.90
31799;DHT22;18374;51.136;3.502;2023-11-22T22:45:54;8.30;99.90
31799;DHT22;18374;51.136;3.502;2023-11-22T22:48:22;8.30;99.90
31799;DHT22;18374;51.136;3.502;2023-11-22T22:50:50;8.30;99.90
31799;DHT22;18374;51.136;3.502;2023-11-22T22:53:18;8.30;99.90
31799;DHT22;18374;51.136;3.502;2023-11-22T22:55:46;8.30;99.90
31799;DHT22;18374;51.136;3.502;2023-11-22T22:58:14;8.30;99.90
31799;DHT22;18374;51.136;3.502;2023-11-22T23:00:42;8.30;99.90
31799;DHT22;18374;51.136;3.502;2023-11-22T23:03:11;8.40;99.90
31799;DHT22;18374;51.136;3.502;2023-11-22T23:05:39;8.40;99.90
31799;DHT22;18374;51.136;3.502;2023-11-22T23:08:07;8.40;99.90
31799;DHT22;18374;51.136;3.502;2023-11-22T23:10:36;8.40;99.90
31799;DHT22;18374;51.136;3.502;2023-11-22T23:13:04;8.40;99.90
31799;DHT22;18374;51.136;3.502;2023-11-22T23:15:32;8.50;99.90
31799;DHT22;18374;51.136;3.502;2023-11-22T23:18:00;8.50;99.90
31799;DHT22;18374;51.136;3.502;2023-11-22T23:20:29;8.50;99.90
31799;DHT22;18374;51.136;3.502;2023-11-22T23:23:10;8.50;99.90
31799;DHT22;18374;51.136;3.502;2023-11-22T23:25:39;8.50;99.90
31799;DHT22;18374;51.136;3.502;2023-11-22T23:28:07;8.60;99.90
31799;DHT22;18374;51.136;3.502;2023-11-22T23:30:34;8.60;99.90
31799;DHT22;18374;51.136;3.502;2023-11-22T23:33:02;8.60;99.90
31799;DHT22;18374;51.136;3.502;2023-11-22T23:35:30;8.60;99.90
31799;DHT22;18374;51.136;3.502;2023-11-22T23:37:58;8.70;99.90
31799;DHT22;18374;51.136;3.502;2023-11-22T23:40:26;8.70;99.90
31799;DHT22;18374;51.136;3.502;2023-11-22T23:42:53;8.70;99.90
31799;DHT22;18374;51.136;3.502;2023-11-22T23:45:23;8.70;99.90
31799;DHT22;18374;51.136;3.502;2023-11-22T23:47:51;8.70;99.90
31799;DHT22;18374;51.136;3.502;2023-11-22T23:50:19;8.70;99.90
31799;DHT22;18374;51.136;3.502;2023-11-22T23:52:47;8.70;99.90
31799;DHT22;18374;51.136;3.502;2023-11-22T23:55:19;8.70;99.90
31799;DHT22;18374;51.136;3.502;2023-11-22T23:57:47;8.70;99.90
